sensor_id;sensor_type;location;lat;lon;timestamp;P1;durP1;ratioP1;P2;durP2;ratioP2
50651;SDS011;66928;52.086;5.240;2023-02-12T06:24:46;18.91;;;17.0;;
50651;SDS011;66928;52.086;5.240;2023-02-12T06:28:01;18.8;;;16.8;;
50651;SDS011;66928;52.086;5.240;2023-02-12T06:29:37;19.61;;;17.5;;
50651;SDS011;66928;52.086;5.240;2023-02-12T06:31:16;18.41;;;16.5;;
50651;SDS011;66928;52.086;5.240;2023-02-12T06:32:55;18.91;;;17.0;;
50651;SDS011;66928;52.086;5.240;2023-02-12T06:36:09;18.2;;;16.3;;
50651;SDS011;66928;52.086;5.240;2023-02-12T06:37:45;19.5;;;17.5;;
50651;SDS011;66928;52.086;5.240;2023-02-12T06:39:22;18.5;;;16.5;;
50651;SDS011;66928;52.086;5.240;2023-02-12T06:42:37;19.11;;;17.11;;
50651;SDS011;66928;52.086;5.240;2023-02-12T06:44:13;19.11;;;17.0;;
50651;SDS011;66928;52.086;5.240;2023-02-12T06:45:49;19.7;;;17.3;;
50651;SDS011;66928;52.086;5.240;2023-02-12T06:49:03;19.7;;;17.5;;
50651;SDS011;66928;52.086;5.240;2023-02-12T06:50:39;18.7;;;16.8;;
50651;SDS011;66928;52.086;5.240;2023-02-12T06:52:16;19.91;;;17.8;;
50651;SDS011;66928;52.086;5.240;2023-02-12T06:53:53;20.6;;;17.8;;
50651;SDS011;66928;52.086;5.240;2023-02-12T06:57:06;20.0;;;17.91;;
50651;SDS011;66928;52.086;5.240;2023-02-12T06:58:43;19.61;;;17.41;;
50651;SDS011;66928;52.086;5.240;2023-02-12T07:00:21;19.41;;;17.3;;
50651;SDS011;66928;52.086;5.240;2023-02-12T07:03:35;19.7;;;17.3;;
50651;SDS011;66928;52.086;5.240;2023-02-12T07:05:11;18.91;;;16.9;;
50651;SDS011;66928;52.086;5.240;2023-02-12T07:06:48;19.41;;;17.41;;
50651;SDS011;66928;52.086;5.240;2023-02-12T07:10:00;19.41;;;17.3;;
50651;SDS011;66928;52.086;5.240;2023-02-12T07:11:37;19.91;;;17.3;;
50651;SDS011;66928;52.086;5.240;2023-02-12T07:13:14;19.61;;;17.5;;
50651;SDS011;66928;52.086;5.240;2023-02-12T07:14:51;18.8;;;16.9;;
50651;SDS011;66928;52.086;5.240;2023-02-12T07:18:05;18.5;;;16.61;;
50651;SDS011;66928;52.086;5.240;2023-02-12T07:19:41;19.8;;;17.7;;
50651;SDS011;66928;52.086;5.240;2023-02-12T07:21:17;19.41;;;17.41;;
50651;SDS011;66928;52.086;5.240;2023-02-12T07:24:31;19.41;;;17.41;;
50651;SDS011;66928;52.086;5.240;2023-02-12T07:26:09;20.2;;;18.11;;
50651;SDS011;66928;52.086;5.240;2023-02-12T07:27:47;19.41;;;17.41;;
50651;SDS011;66928;52.086;5.240;2023-02-12T07:29:24;20.3;;;18.3;;
50651;SDS011;66928;52.086;5.240;2023-02-12T07:32:43;20.11;;;17.91;;
50651;SDS011;66928;52.086;5.240;2023-02-12T07:34:19;19.11;;;16.8;;
50651;SDS011;66928;52.086;5.240;2023-02-12T07:35:58;20.7;;;17.91;;
50651;SDS011;66928;52.086;5.240;2023-02-12T07:39:12;19.61;;;17.61;;
50651;SDS011;66928;52.086;5.240;2023-02-12T07:40:48;20.11;;;18.11;;
50651;SDS011;66928;52.086;5.240;2023-02-12T07:42:26;19.61;;;17.5;;
50651;SDS011;66928;52.086;5.240;2023-02-12T07:44:03;19.2;;;17.3;;
50651;SDS011;66928;52.086;5.240;2023-02-12T07:47:18;19.11;;;17.11;;
50651;SDS011;66928;52.086;5.240;2023-02-12T07:48:56;18.8;;;16.9;;
50651;SDS011;66928;52.086;5.240;2023-02-12T07:50:33;18.61;;;16.61;;
50651;SDS011;66928;52.086;5.240;2023-02-12T07:53:48;19.61;;;16.9;;
50651;SDS011;66928;52.086;5.240;2023-02-12T07:55:26;18.7;;;16.8;;
50651;SDS011;66928;52.086;5.240;2023-02-12T07:57:02;18.8;;;16.61;;
50651;SDS011;66928;52.086;5.240;2023-02-12T07:58:39;18.7;;;16.9;;
50651;SDS011;66928;52.086;5.240;2023-02-12T08:01:55;18.3;;;16.4;;
50651;SDS011;66928;52.086;5.240;2023-02-12T08:03:31;19.3;;;16.5;;
50651;SDS011;66928;52.086;5.240;2023-02-12T08:05:08;18.2;;;16.4;;
50651;SDS011;66928;52.086;5.240;2023-02-12T08:08:24;19.2;;;16.61;;
50651;SDS011;66928;52.086;5.240;2023-02-12T08:10:00;17.91;;;16.0;;
50651;SDS011;66928;52.086;5.240;2023-02-12T08:11:37;18.2;;;16.3;;
50651;SDS011;66928;52.086;5.240;2023-02-12T08:14:53;20.2;;;16.7;;
50651;SDS011;66928;52.086;5.240;2023-02-12T08:16:30;18.5;;;16.61;;
50651;SDS011;66928;52.086;5.240;2023-02-12T08:18:11;19.0;;;17.0;;
50651;SDS011;66928;52.086;5.240;2023-02-12T08:19:48;17.7;;;16.0;;
50651;SDS011;66928;52.086;5.240;2023-02-12T08:23:03;18.0;;;16.11;;
50651;SDS011;66928;52.086;5.240;2023-02-12T08:24:39;18.41;;;16.61;;
50651;SDS011;66928;52.086;5.240;2023-02-12T08:26:16;19.2;;;17.11;;
50651;SDS011;66928;52.086;5.240;2023-02-12T08:29:30;18.3;;;16.4;;
50651;SDS011;66928;52.086;5.240;2023-02-12T08:31:07;18.3;;;16.4;;
50651;SDS011;66928;52.086;5.240;2023-02-12T08:32:50;17.5;;;15.7;;
50651;SDS011;66928;52.086;5.240;2023-02-12T08:34:27;18.8;;;16.9;;
50651;SDS011;66928;52.086;5.240;2023-02-12T08:37:45;19.5;;;17.0;;
50651;SDS011;66928;52.086;5.240;2023-02-12T08:39:21;18.5;;;16.61;;
50651;SDS011;66928;52.086;5.240;2023-02-12T08:41:00;18.91;;;16.9;;
50651;SDS011;66928;52.086;5.240;2023-02-12T08:42:38;18.2;;;16.3;;
50651;SDS011;66928;52.086;5.240;2023-02-12T08:45:51;18.11;;;16.2;;
50651;SDS011;66928;52.086;5.240;2023-02-12T08:47:27;19.61;;;16.3;;
50651;SDS011;66928;52.086;5.240;2023-02-12T08:49:05;18.7;;;16.7;;
50651;SDS011;66928;52.086;5.240;2023-02-12T08:52:21;17.8;;;16.0;;
50651;SDS011;66928;52.086;5.240;2023-02-12T08:53:59;18.2;;;16.11;;
50651;SDS011;66928;52.086;5.240;2023-02-12T08:55:37;17.41;;;15.6;;
50651;SDS011;66928;52.086;5.240;2023-02-12T08:57:13;19.91;;;16.8;;
50651;SDS011;66928;52.086;5.240;2023-02-12T09:00:26;19.11;;;17.0;;
50651;SDS011;66928;52.086;5.240;2023-02-12T09:02:03;18.5;;;16.61;;
50651;SDS011;66928;52.086;5.240;2023-02-12T09:03:40;20.3;;;16.9;;
50651;SDS011;66928;52.086;5.240;2023-02-12T09:06:54;18.3;;;15.9;;
50651;SDS011;66928;52.086;5.240;2023-02-12T09:08:32;17.3;;;15.6;;
50651;SDS011;66928;52.086;5.240;2023-02-12T09:10:09;18.0;;;16.2;;
50651;SDS011;66928;52.086;5.240;2023-02-12T09:13:23;18.41;;;16.0;;
50651;SDS011;66928;52.086;5.240;2023-02-12T09:15:00;16.5;;;14.6;;
50651;SDS011;66928;52.086;5.240;2023-02-12T09:16:39;18.0;;;15.6;;
50651;SDS011;66928;52.086;5.240;2023-02-12T09:18:15;21.6;;;16.61;;
50651;SDS011;66928;52.086;5.240;2023-02-12T09:21:30;19.5;;;17.41;;
50651;SDS011;66928;52.086;5.240;2023-02-12T09:23:07;19.8;;;17.11;;
50651;SDS011;66928;52.086;5.240;2023-02-12T09:24:46;17.2;;;15.4;;
50651;SDS011;66928;52.086;5.240;2023-02-12T09:28:01;20.11;;;16.4;;
50651;SDS011;66928;52.086;5.240;2023-02-12T09:29:38;17.91;;;16.0;;
50651;SDS011;66928;52.086;5.240;2023-02-12T09:31:16;16.9;;;15.1;;
50651;SDS011;66928;52.086;5.240;2023-02-12T09:32:55;17.7;;;15.8;;
50651;SDS011;66928;52.086;5.240;2023-02-12T09:36:11;17.8;;;15.9;;
50651;SDS011;66928;52.086;5.240;2023-02-12T09:37:52;19.0;;;15.9;;
50651;SDS011;66928;52.086;5.240;2023-02-12T09:39:29;17.5;;;15.8;;
50651;SDS011;66928;52.086;5.240;2023-02-12T09:43:09;17.8;;;15.9;;
50651;SDS011;66928;52.086;5.240;2023-02-12T09:44:53;18.61;;;16.61;;
50651;SDS011;66928;52.086;5.240;2023-02-12T09:46:41;17.7;;;15.6;;
50651;SDS011;66928;52.086;5.240;2023-02-12T09:48:29;17.11;;;15.4;;
50651;SDS011;66928;52.086;5.240;2023-02-12T09:50:26;18.2;;;16.0;;
50651;SDS011;66928;52.086;5.240;2023-02-12T09:52:23;17.11;;;15.4;;
50651;SDS011;66928;52.086;5.240;2023-02-12T09:54:04;18.11;;;16.2;;
50651;SDS011;66928;52.086;5.240;2023-02-12T09:57:24;19.3;;;17.0;;
50651;SDS011;66928;52.086;5.240;2023-02-12T09:59:05;20.9;;;17.2;;
50651;SDS011;66928;52.086;5.240;2023-02-12T10:00:44;20.3;;;17.3;;
50651;SDS011;66928;52.086;5.240;2023-02-12T10:02:20;20.41;;;18.0;;
50651;SDS011;66928;52.086;5.240;2023-02-12T10:05:37;20.41;;;18.11;;
50651;SDS011;66928;52.086;5.240;2023-02-12T10:07:20;20.2;;;17.61;;
50651;SDS011;66928;52.086;5.240;2023-02-12T10:09:19;19.91;;;17.7;;
50651;SDS011;66928;52.086;5.240;2023-02-12T10:11:14;19.8;;;17.7;;
50651;SDS011;66928;52.086;5.240;2023-02-12T10:13:17;20.8;;;18.0;;
50651;SDS011;66928;52.086;5.240;2023-02-12T10:15:14;20.0;;;17.61;;
50651;SDS011;66928;52.086;5.240;2023-02-12T10:17:05;19.3;;;17.3;;
50651;SDS011;66928;52.086;5.240;2023-02-12T10:18:53;19.91;;;17.8;;
50651;SDS011;66928;52.086;5.240;2023-02-12T10:22:49;20.8;;;18.61;;
50651;SDS011;66928;52.086;5.240;2023-02-12T10:24:42;21.9;;;18.5;;
50651;SDS011;66928;52.086;5.240;2023-02-12T10:26:33;19.91;;;17.8;;
50651;SDS011;66928;52.086;5.240;2023-02-12T10:28:14;20.0;;;17.91;;
50651;SDS011;66928;52.086;5.240;2023-02-12T10:29:54;20.9;;;18.7;;
50651;SDS011;66928;52.086;5.240;2023-02-12T10:31:33;20.8;;;18.61;;
50651;SDS011;66928;52.086;5.240;2023-02-12T10:34:56;21.4;;;19.11;;
50651;SDS011;66928;52.086;5.240;2023-02-12T10:38:18;21.4;;;18.8;;
50651;SDS011;66928;52.086;5.240;2023-02-12T10:39:59;20.0;;;17.91;;
50651;SDS011;66928;52.086;5.240;2023-02-12T10:43:22;21.0;;;18.2;;
50651;SDS011;66928;52.086;5.240;2023-02-12T10:44:59;21.1;;;18.41;;
50651;SDS011;66928;52.086;5.240;2023-02-12T10:46:36;21.2;;;18.91;;
50651;SDS011;66928;52.086;5.240;2023-02-12T10:48:14;21.3;;;19.11;;
50651;SDS011;66928;52.086;5.240;2023-02-12T10:51:37;22.4;;;19.2;;
50651;SDS011;66928;52.086;5.240;2023-02-12T10:53:25;25.6;;;20.2;;
50651;SDS011;66928;52.086;5.240;2023-02-12T10:55:22;22.5;;;20.2;;
50651;SDS011;66928;52.086;5.240;2023-02-12T10:57:05;19.91;;;17.91;;
50651;SDS011;66928;52.086;5.240;2023-02-12T10:58:50;20.11;;;18.0;;
50651;SDS011;66928;52.086;5.240;2023-02-12T11:02:30;21.0;;;18.3;;
50651;SDS011;66928;52.086;5.240;2023-02-12T11:04:23;21.7;;;18.2;;
50651;SDS011;66928;52.086;5.240;2023-02-12T11:06:12;20.11;;;17.5;;
50651;SDS011;66928;52.086;5.240;2023-02-12T11:07:51;20.5;;;18.3;;
50651;SDS011;66928;52.086;5.240;2023-02-12T11:09:28;19.91;;;17.3;;
50651;SDS011;66928;52.086;5.240;2023-02-12T11:11:08;20.0;;;17.91;;
50651;SDS011;66928;52.086;5.240;2023-02-12T11:14:24;19.8;;;17.8;;
50651;SDS011;66928;52.086;5.240;2023-02-12T11:16:02;20.11;;;18.0;;
50651;SDS011;66928;52.086;5.240;2023-02-12T11:17:40;20.5;;;18.3;;
50651;SDS011;66928;52.086;5.240;2023-02-12T11:21:00;21.9;;;18.5;;
50651;SDS011;66928;52.086;5.240;2023-02-12T11:22:47;22.6;;;19.3;;
50651;SDS011;66928;52.086;5.240;2023-02-12T11:24:28;22.6;;;19.3;;
50651;SDS011;66928;52.086;5.240;2023-02-12T11:26:22;22.1;;;18.3;;
50651;SDS011;66928;52.086;5.240;2023-02-12T11:28:04;21.0;;;18.2;;
50651;SDS011;66928;52.086;5.240;2023-02-12T11:31:58;21.9;;;19.61;;
50651;SDS011;66928;52.086;5.240;2023-02-12T11:35:24;20.2;;;17.61;;
50651;SDS011;66928;52.086;5.240;2023-02-12T11:37:02;19.8;;;17.7;;
50651;SDS011;66928;52.086;5.240;2023-02-12T11:38:46;19.41;;;17.41;;
50651;SDS011;66928;52.086;5.240;2023-02-12T11:40:29;19.7;;;17.61;;
50651;SDS011;66928;52.086;5.240;2023-02-12T11:43:53;21.2;;;18.0;;
50651;SDS011;66928;52.086;5.240;2023-02-12T11:45:32;22.5;;;17.7;;
50651;SDS011;66928;52.086;5.240;2023-02-12T11:47:17;22.2;;;18.11;;
50651;SDS011;66928;52.086;5.240;2023-02-12T11:48:57;19.41;;;16.3;;
50651;SDS011;66928;52.086;5.240;2023-02-12T11:52:17;19.41;;;17.11;;
50651;SDS011;66928;52.086;5.240;2023-02-12T11:53:57;19.3;;;16.8;;
50651;SDS011;66928;52.086;5.240;2023-02-12T11:55:39;20.0;;;16.5;;
50651;SDS011;66928;52.086;5.240;2023-02-12T11:57:49;18.41;;;16.5;;
50651;SDS011;66928;52.086;5.240;2023-02-12T11:59:30;18.3;;;16.4;;
50651;SDS011;66928;52.086;5.240;2023-02-12T12:02:56;20.8;;;17.2;;
50651;SDS011;66928;52.086;5.240;2023-02-12T12:04:37;17.7;;;15.8;;
50651;SDS011;66928;52.086;5.240;2023-02-12T12:06:21;17.41;;;15.6;;
50651;SDS011;66928;52.086;5.240;2023-02-12T12:08:11;18.0;;;16.11;;
50651;SDS011;66928;52.086;5.240;2023-02-12T12:09:57;17.7;;;15.6;;
50651;SDS011;66928;52.086;5.240;2023-02-12T12:13:35;17.8;;;15.3;;
50651;SDS011;66928;52.086;5.240;2023-02-12T12:20:10;17.11;;;14.6;;
50651;SDS011;66928;52.086;5.240;2023-02-12T12:21:56;16.0;;;14.3;;
50651;SDS011;66928;52.086;5.240;2023-02-12T12:23:40;16.2;;;14.6;;
50651;SDS011;66928;52.086;5.240;2023-02-12T12:25:21;22.3;;;18.5;;
50651;SDS011;66928;52.086;5.240;2023-02-12T12:27:03;25.1;;;19.61;;
50651;SDS011;66928;52.086;5.240;2023-02-12T12:28:50;19.5;;;16.7;;
50651;SDS011;66928;52.086;5.240;2023-02-12T12:32:37;16.7;;;14.9;;
50651;SDS011;66928;52.086;5.240;2023-02-12T12:34:17;16.3;;;14.7;;
50651;SDS011;66928;52.086;5.240;2023-02-12T12:36:00;16.11;;;14.4;;
50651;SDS011;66928;52.086;5.240;2023-02-12T12:38:00;15.9;;;13.6;;
50651;SDS011;66928;52.086;5.240;2023-02-12T12:39:47;17.11;;;15.3;;
50651;SDS011;66928;52.086;5.240;2023-02-12T12:41:40;18.3;;;16.4;;
50651;SDS011;66928;52.086;5.240;2023-02-12T12:43:35;17.61;;;14.3;;
50651;SDS011;66928;52.086;5.240;2023-02-12T12:45:29;16.2;;;14.6;;
50651;SDS011;66928;52.086;5.240;2023-02-12T12:48:22;17.0;;;14.1;;
50651;SDS011;66928;52.086;5.240;2023-02-12T12:50:19;16.61;;;14.7;;
50651;SDS011;66928;52.086;5.240;2023-02-12T12:52:16;18.7;;;16.2;;
50651;SDS011;66928;52.086;5.240;2023-02-12T12:55:10;17.7;;;15.8;;
50651;SDS011;66928;52.086;5.240;2023-02-12T12:57:34;17.0;;;15.2;;
50651;SDS011;66928;52.086;5.240;2023-02-12T12:59:26;16.5;;;14.3;;
50651;SDS011;66928;52.086;5.240;2023-02-12T13:01:48;16.5;;;14.7;;
50651;SDS011;66928;52.086;5.240;2023-02-12T13:05:34;18.3;;;16.3;;
50651;SDS011;66928;52.086;5.240;2023-02-12T13:07:45;17.91;;;16.0;;
50651;SDS011;66928;52.086;5.240;2023-02-12T13:09:37;16.7;;;15.0;;
50651;SDS011;66928;52.086;5.240;2023-02-12T13:11:56;16.61;;;14.8;;
50651;SDS011;66928;52.086;5.240;2023-02-12T13:14:30;17.3;;;15.5;;
50651;SDS011;66928;52.086;5.240;2023-02-12T13:16:20;15.5;;;13.9;;
50651;SDS011;66928;52.086;5.240;2023-02-12T13:18:09;15.8;;;14.2;;
50651;SDS011;66928;52.086;5.240;2023-02-12T13:19:57;14.6;;;13.1;;
50651;SDS011;66928;52.086;5.240;2023-02-12T13:21:50;17.11;;;15.4;;
50651;SDS011;66928;52.086;5.240;2023-02-12T13:23:38;15.8;;;14.0;;
50651;SDS011;66928;52.086;5.240;2023-02-12T13:25:22;16.3;;;14.2;;
50651;SDS011;66928;52.086;5.240;2023-02-12T13:27:06;16.9;;;14.7;;
50651;SDS011;66928;52.086;5.240;2023-02-12T13:30:32;16.9;;;14.4;;
50651;SDS011;66928;52.086;5.240;2023-02-12T13:32:15;16.4;;;14.7;;
50651;SDS011;66928;52.086;5.240;2023-02-12T13:34:00;15.5;;;13.9;;
50651;SDS011;66928;52.086;5.240;2023-02-12T13:35:41;15.9;;;14.3;;
50651;SDS011;66928;52.086;5.240;2023-02-12T13:39:14;17.8;;;15.5;;
50651;SDS011;66928;52.086;5.240;2023-02-12T13:40:59;17.8;;;15.7;;
50651;SDS011;66928;52.086;5.240;2023-02-12T13:42:44;16.8;;;15.1;;
50651;SDS011;66928;52.086;5.240;2023-02-12T13:44:34;15.4;;;13.4;;
50651;SDS011;66928;52.086;5.240;2023-02-12T13:46:20;15.6;;;13.9;;
50651;SDS011;66928;52.086;5.240;2023-02-12T13:48:12;17.7;;;14.6;;
50651;SDS011;66928;52.086;5.240;2023-02-12T13:51:46;16.0;;;14.4;;
50651;SDS011;66928;52.086;5.240;2023-02-12T13:53:26;16.0;;;14.4;;
50651;SDS011;66928;52.086;5.240;2023-02-12T13:55:21;14.6;;;13.1;;
50651;SDS011;66928;52.086;5.240;2023-02-12T13:57:02;17.2;;;15.4;;
50651;SDS011;66928;52.086;5.240;2023-02-12T13:58:48;15.7;;;14.0;;
50651;SDS011;66928;52.086;5.240;2023-02-12T14:02:42;16.5;;;14.8;;
50651;SDS011;66928;52.086;5.240;2023-02-12T14:04:24;15.5;;;13.9;;
50651;SDS011;66928;52.086;5.240;2023-02-12T14:06:06;16.9;;;15.2;;
50651;SDS011;66928;52.086;5.240;2023-02-12T14:07:49;15.3;;;13.4;;
50651;SDS011;66928;52.086;5.240;2023-02-12T14:09:30;14.8;;;12.6;;
50651;SDS011;66928;52.086;5.240;2023-02-12T14:11:11;15.0;;;13.5;;
50651;SDS011;66928;52.086;5.240;2023-02-12T14:14:34;16.5;;;14.1;;
50651;SDS011;66928;52.086;5.240;2023-02-12T14:16:18;15.0;;;13.6;;
50651;SDS011;66928;52.086;5.240;2023-02-12T14:18:28;17.0;;;15.2;;
50651;SDS011;66928;52.086;5.240;2023-02-12T14:20:20;14.3;;;12.9;;
50651;SDS011;66928;52.086;5.240;2023-02-12T14:22:08;14.7;;;12.8;;
50651;SDS011;66928;52.086;5.240;2023-02-12T14:23:49;17.11;;;12.9;;
50651;SDS011;66928;52.086;5.240;2023-02-12T14:27:21;17.61;;;15.5;;
50651;SDS011;66928;52.086;5.240;2023-02-12T14:29:05;23.6;;;19.0;;
50651;SDS011;66928;52.086;5.240;2023-02-12T14:31:30;20.5;;;16.7;;
50651;SDS011;66928;52.086;5.240;2023-02-12T14:33:30;19.8;;;16.0;;
50651;SDS011;66928;52.086;5.240;2023-02-12T14:35:35;15.4;;;13.8;;
50651;SDS011;66928;52.086;5.240;2023-02-12T14:37:15;15.8;;;14.0;;
50651;SDS011;66928;52.086;5.240;2023-02-12T14:39:26;17.41;;;15.6;;
50651;SDS011;66928;52.086;5.240;2023-02-12T14:41:34;14.8;;;13.2;;
50651;SDS011;66928;52.086;5.240;2023-02-12T14:43:29;14.5;;;13.0;;
50651;SDS011;66928;52.086;5.240;2023-02-12T14:45:29;17.8;;;14.3;;
50651;SDS011;66928;52.086;5.240;2023-02-12T14:47:14;21.9;;;18.0;;
50651;SDS011;66928;52.086;5.240;2023-02-12T14:50:14;19.11;;;15.8;;
50651;SDS011;66928;52.086;5.240;2023-02-12T14:51:56;15.6;;;13.9;;
50651;SDS011;66928;52.086;5.240;2023-02-12T14:53:36;16.8;;;13.7;;
50651;SDS011;66928;52.086;5.240;2023-02-12T14:55:19;17.3;;;13.6;;
50651;SDS011;66928;52.086;5.240;2023-02-12T14:58:54;14.8;;;13.3;;
50651;SDS011;66928;52.086;5.240;2023-02-12T15:00:35;15.0;;;12.8;;
50651;SDS011;66928;52.086;5.240;2023-02-12T15:02:16;13.7;;;12.3;;
50651;SDS011;66928;52.086;5.240;2023-02-12T15:04:06;15.5;;;13.8;;
50651;SDS011;66928;52.086;5.240;2023-02-12T15:05:54;15.6;;;13.9;;
50651;SDS011;66928;52.086;5.240;2023-02-12T15:07:36;16.2;;;12.8;;
50651;SDS011;66928;52.086;5.240;2023-02-12T15:11:11;13.8;;;12.4;;
50651;SDS011;66928;52.086;5.240;2023-02-12T15:13:04;17.3;;;14.3;;
50651;SDS011;66928;52.086;5.240;2023-02-12T15:14:55;18.3;;;15.6;;
50651;SDS011;66928;52.086;5.240;2023-02-12T15:16:51;19.41;;;16.9;;
50651;SDS011;66928;52.086;5.240;2023-02-12T15:18:37;23.6;;;18.2;;
50651;SDS011;66928;52.086;5.240;2023-02-12T15:20:23;19.5;;;15.5;;
50651;SDS011;66928;52.086;5.240;2023-02-12T15:24:06;15.9;;;13.2;;
50651;SDS011;66928;52.086;5.240;2023-02-12T15:25:45;15.2;;;13.6;;
50651;SDS011;66928;52.086;5.240;2023-02-12T15:27:25;16.8;;;14.9;;
50651;SDS011;66928;52.086;5.240;2023-02-12T15:29:03;16.61;;;13.7;;
50651;SDS011;66928;52.086;5.240;2023-02-12T15:30:41;21.1;;;17.8;;
50651;SDS011;66928;52.086;5.240;2023-02-12T15:34:03;20.9;;;16.9;;
50651;SDS011;66928;52.086;5.240;2023-02-12T15:35:42;19.41;;;16.0;;
50651;SDS011;66928;52.086;5.240;2023-02-12T15:37:21;19.91;;;16.5;;
50651;SDS011;66928;52.086;5.240;2023-02-12T15:39:04;18.2;;;15.3;;
50651;SDS011;66928;52.086;5.240;2023-02-12T15:42:31;19.5;;;15.2;;
50651;SDS011;66928;52.086;5.240;2023-02-12T15:44:18;19.3;;;17.2;;
50651;SDS011;66928;52.086;5.240;2023-02-12T15:45:58;18.0;;;16.11;;
50651;SDS011;66928;52.086;5.240;2023-02-12T15:47:37;18.91;;;15.2;;
50651;SDS011;66928;52.086;5.240;2023-02-12T15:50:54;17.3;;;15.1;;
50651;SDS011;66928;52.086;5.240;2023-02-12T15:52:40;17.41;;;15.0;;
50651;SDS011;66928;52.086;5.240;2023-02-12T15:54:20;16.2;;;14.6;;
50651;SDS011;66928;52.086;5.240;2023-02-12T15:55:57;16.3;;;14.6;;
50651;SDS011;66928;52.086;5.240;2023-02-12T15:59:17;14.0;;;12.5;;
50651;SDS011;66928;52.086;5.240;2023-02-12T16:00:59;15.5;;;13.7;;
50651;SDS011;66928;52.086;5.240;2023-02-12T16:02:38;17.11;;;15.3;;
50651;SDS011;66928;52.086;5.240;2023-02-12T16:04:14;16.0;;;14.3;;
50651;SDS011;66928;52.086;5.240;2023-02-12T16:07:39;17.5;;;15.6;;
50651;SDS011;66928;52.086;5.240;2023-02-12T16:09:17;17.3;;;15.4;;
50651;SDS011;66928;52.086;5.240;2023-02-12T16:10:58;17.91;;;16.0;;
50651;SDS011;66928;52.086;5.240;2023-02-12T16:12:36;19.11;;;17.11;;
50651;SDS011;66928;52.086;5.240;2023-02-12T16:16:06;18.3;;;16.3;;
50651;SDS011;66928;52.086;5.240;2023-02-12T16:17:52;18.11;;;15.7;;
50651;SDS011;66928;52.086;5.240;2023-02-12T16:19:30;16.8;;;15.0;;
50651;SDS011;66928;52.086;5.240;2023-02-12T16:21:10;17.8;;;15.3;;
50651;SDS011;66928;52.086;5.240;2023-02-12T16:22:56;18.61;;;16.61;;
50651;SDS011;66928;52.086;5.240;2023-02-12T16:26:15;18.2;;;16.3;;
50651;SDS011;66928;52.086;5.240;2023-02-12T16:27:57;18.0;;;16.11;;
50651;SDS011;66928;52.086;5.240;2023-02-12T16:29:36;17.61;;;15.7;;
50651;SDS011;66928;52.086;5.240;2023-02-12T16:31:21;17.5;;;15.6;;
50651;SDS011;66928;52.086;5.240;2023-02-12T16:34:37;17.0;;;15.2;;
50651;SDS011;66928;52.086;5.240;2023-02-12T16:36:25;17.41;;;15.6;;
50651;SDS011;66928;52.086;5.240;2023-02-12T16:38:24;18.8;;;16.11;;
50651;SDS011;66928;52.086;5.240;2023-02-12T16:40:19;19.2;;;17.11;;
50651;SDS011;66928;52.086;5.240;2023-02-12T16:42:13;18.41;;;16.3;;
50651;SDS011;66928;52.086;5.240;2023-02-12T16:44:51;21.1;;;17.8;;
50651;SDS011;66928;52.086;5.240;2023-02-12T16:46:29;19.41;;;17.3;;
50651;SDS011;66928;52.086;5.240;2023-02-12T16:48:13;20.41;;;17.3;;
50651;SDS011;66928;52.086;5.240;2023-02-12T16:51:37;20.41;;;18.2;;
50651;SDS011;66928;52.086;5.240;2023-02-12T16:55:18;23.3;;;18.61;;
50651;SDS011;66928;52.086;5.240;2023-02-12T16:56:55;23.8;;;19.3;;
50651;SDS011;66928;52.086;5.240;2023-02-12T16:58:33;22.3;;;18.7;;
50651;SDS011;66928;52.086;5.240;2023-02-12T17:01:55;21.8;;;19.0;;
50651;SDS011;66928;52.086;5.240;2023-02-12T17:03:34;19.3;;;16.9;;
50651;SDS011;66928;52.086;5.240;2023-02-12T17:05:12;20.8;;;18.2;;
50651;SDS011;66928;52.086;5.240;2023-02-12T17:06:50;22.3;;;18.3;;
50651;SDS011;66928;52.086;5.240;2023-02-12T17:10:05;21.0;;;18.0;;
50651;SDS011;66928;52.086;5.240;2023-02-12T17:11:44;20.8;;;17.41;;
50651;SDS011;66928;52.086;5.240;2023-02-12T17:13:21;21.5;;;17.5;;
50651;SDS011;66928;52.086;5.240;2023-02-12T17:16:34;22.6;;;18.0;;
50651;SDS011;66928;52.086;5.240;2023-02-12T17:18:11;22.2;;;18.2;;
50651;SDS011;66928;52.086;5.240;2023-02-12T17:19:47;20.11;;;17.91;;
50651;SDS011;66928;52.086;5.240;2023-02-12T17:21:24;20.6;;;18.3;;
50651;SDS011;66928;52.086;5.240;2023-02-12T17:24:42;21.8;;;17.91;;
50651;SDS011;66928;52.086;5.240;2023-02-12T17:26:19;22.6;;;18.3;;
50651;SDS011;66928;52.086;5.240;2023-02-12T17:27:56;20.11;;;17.91;;
50651;SDS011;66928;52.086;5.240;2023-02-12T17:31:09;22.5;;;17.7;;
50651;SDS011;66928;52.086;5.240;2023-02-12T17:32:46;20.8;;;17.61;;
50651;SDS011;66928;52.086;5.240;2023-02-12T17:34:24;20.11;;;16.8;;
50651;SDS011;66928;52.086;5.240;2023-02-12T17:36:01;18.8;;;16.5;;
50651;SDS011;66928;52.086;5.240;2023-02-12T17:39:15;21.9;;;19.3;;
50651;SDS011;66928;52.086;5.240;2023-02-12T17:40:54;21.2;;;18.0;;
50651;SDS011;66928;52.086;5.240;2023-02-12T17:42:31;22.9;;;18.61;;
50651;SDS011;66928;52.086;5.240;2023-02-12T17:45:46;24.0;;;19.0;;
50651;SDS011;66928;52.086;5.240;2023-02-12T17:47:23;21.4;;;18.41;;
50651;SDS011;66928;52.086;5.240;2023-02-12T17:49:00;24.9;;;19.8;;
50651;SDS011;66928;52.086;5.240;2023-02-12T17:52:15;24.8;;;20.11;;
50651;SDS011;66928;52.086;5.240;2023-02-12T17:53:51;25.3;;;20.5;;
50651;SDS011;66928;52.086;5.240;2023-02-12T17:55:29;24.4;;;20.5;;
50651;SDS011;66928;52.086;5.240;2023-02-12T17:57:06;24.4;;;19.41;;
50651;SDS011;66928;52.086;5.240;2023-02-12T18:00:22;24.7;;;19.41;;
50651;SDS011;66928;52.086;5.240;2023-02-12T18:01:59;26.6;;;20.7;;
50651;SDS011;66928;52.086;5.240;2023-02-12T18:03:36;26.8;;;20.8;;
50651;SDS011;66928;52.086;5.240;2023-02-12T18:06:51;22.8;;;19.0;;
50651;SDS011;66928;52.086;5.240;2023-02-12T18:08:29;23.4;;;20.0;;
50651;SDS011;66928;52.086;5.240;2023-02-12T18:10:06;23.7;;;20.11;;
50651;SDS011;66928;52.086;5.240;2023-02-12T18:11:44;29.5;;;24.8;;
50651;SDS011;66928;52.086;5.240;2023-02-12T18:14:57;29.5;;;24.8;;
50651;SDS011;66928;52.086;5.240;2023-02-12T18:16:35;23.6;;;20.0;;
50651;SDS011;66928;52.086;5.240;2023-02-12T18:18:13;24.5;;;20.0;;
50651;SDS011;66928;52.086;5.240;2023-02-12T18:21:27;28.2;;;22.5;;
50651;SDS011;66928;52.086;5.240;2023-02-12T18:23:05;26.5;;;22.7;;
50651;SDS011;66928;52.086;5.240;2023-02-12T18:24:44;25.2;;;21.6;;
50651;SDS011;66928;52.086;5.240;2023-02-12T18:26:21;27.6;;;22.2;;
50651;SDS011;66928;52.086;5.240;2023-02-12T18:29:37;28.3;;;22.7;;
50651;SDS011;66928;52.086;5.240;2023-02-12T18:31:14;28.2;;;22.5;;
50651;SDS011;66928;52.086;5.240;2023-02-12T18:32:53;24.5;;;20.41;;
50651;SDS011;66928;52.086;5.240;2023-02-12T18:36:09;20.9;;;17.41;;
50651;SDS011;66928;52.086;5.240;2023-02-12T18:37:47;19.7;;;17.0;;
50651;SDS011;66928;52.086;5.240;2023-02-12T18:39:25;21.7;;;17.11;;
50651;SDS011;66928;52.086;5.240;2023-02-12T18:41:06;24.0;;;19.3;;
50651;SDS011;66928;52.086;5.240;2023-02-12T18:44:21;24.7;;;20.6;;
50651;SDS011;66928;52.086;5.240;2023-02-12T18:45:58;27.0;;;22.3;;
50651;SDS011;66928;52.086;5.240;2023-02-12T18:47:34;27.3;;;22.7;;
50651;SDS011;66928;52.086;5.240;2023-02-12T18:50:53;26.1;;;20.9;;
50651;SDS011;66928;52.086;5.240;2023-02-12T18:52:31;27.0;;;21.7;;
50651;SDS011;66928;52.086;5.240;2023-02-12T18:54:09;24.6;;;19.41;;
50651;SDS011;66928;52.086;5.240;2023-02-12T18:55:48;24.8;;;20.5;;
50651;SDS011;66928;52.086;5.240;2023-02-12T18:59:03;27.1;;;22.9;;
50651;SDS011;66928;52.086;5.240;2023-02-12T19:00:41;26.4;;;21.4;;
50651;SDS011;66928;52.086;5.240;2023-02-12T19:02:17;26.4;;;20.8;;
50651;SDS011;66928;52.086;5.240;2023-02-12T19:03:54;28.2;;;22.9;;
50651;SDS011;66928;52.086;5.240;2023-02-12T19:07:11;28.4;;;22.9;;